Terminal Aerodrome Forecast
Issued by NWS

Home | Current Version | Previous Version | Graphics & Text | Print | Product List | Glossary On
Versions: 1 2 3 4 5 6 7 8 9 10 11 12 13 14 15 16 17 18 19 20 21 22 23 24 25 26 27 28 29 30
000
FTUS43 KLOT 280800 AAA
TAFGYY
TAF AMD
KGYY 280859Z 2809/2906 21015G25KT 6SM SHRA VCTS SCT020 OVC045CB
     FM281000 27013G22KT P6SM SCT020 BKN100
     FM281500 26019G30KT P6SM SCT035 SCT250
     FM290000 26012KT P6SM FEW035=

USA.gov is the U.S. government's official web portal to all federal, state and local government web resources and services.